sensor_id;sensor_type;location;lat;lon;timestamp;P1;durP1;ratioP1;P2;durP2;ratioP2
47669;SDS011;33408;52.062;11.722;2023-06-14T00:00:31;3.03;;;1.48;;
47669;SDS011;33408;52.062;11.722;2023-06-14T00:02:59;4.60;;;1.77;;
47669;SDS011;33408;52.062;11.722;2023-06-14T00:05:25;6.03;;;2.17;;
47669;SDS011;33408;52.062;11.722;2023-06-14T00:07:54;6.43;;;1.83;;
47669;SDS011;33408;52.062;11.722;2023-06-14T00:10:21;5.72;;;1.85;;
47669;SDS011;33408;52.062;11.722;2023-06-14T00:12:49;4.95;;;1.73;;
47669;SDS011;33408;52.062;11.722;2023-06-14T00:15:16;4.82;;;1.90;;
47669;SDS011;33408;52.062;11.722;2023-06-14T00:17:42;5.47;;;2.00;;
47669;SDS011;33408;52.062;11.722;2023-06-14T00:20:12;4.75;;;1.73;;
47669;SDS011;33408;52.062;11.722;2023-06-14T00:22:39;4.70;;;1.85;;
47669;SDS011;33408;52.062;11.722;2023-06-14T00:25:06;3.42;;;1.77;;
47669;SDS011;33408;52.062;11.722;2023-06-14T00:27:33;3.75;;;2.00;;
47669;SDS011;33408;52.062;11.722;2023-06-14T00:30:01;3.15;;;1.70;;
47669;SDS011;33408;52.062;11.722;2023-06-14T00:32:27;4.47;;;1.98;;
47669;SDS011;33408;52.062;11.722;2023-06-14T00:34:54;4.45;;;1.73;;
47669;SDS011;33408;52.062;11.722;2023-06-14T00:37:20;4.20;;;1.75;;
47669;SDS011;33408;52.062;11.722;2023-06-14T00:39:48;5.18;;;2.00;;
47669;SDS011;33408;52.062;11.722;2023-06-14T00:42:22;4.95;;;1.67;;
47669;SDS011;33408;52.062;11.722;2023-06-14T00:44:49;5.95;;;1.92;;
47669;SDS011;33408;52.062;11.722;2023-06-14T00:47:17;4.25;;;1.90;;
47669;SDS011;33408;52.062;11.722;2023-06-14T00:49:45;4.18;;;1.80;;
47669;SDS011;33408;52.062;11.722;2023-06-14T00:52:12;5.35;;;2.10;;
47669;SDS011;33408;52.062;11.722;2023-06-14T00:54:40;7.30;;;2.10;;
47669;SDS011;33408;52.062;11.722;2023-06-14T00:57:06;5.88;;;2.03;;
47669;SDS011;33408;52.062;11.722;2023-06-14T00:59:33;7.28;;;1.73;;
47669;SDS011;33408;52.062;11.722;2023-06-14T01:02:02;4.57;;;1.80;;
47669;SDS011;33408;52.062;11.722;2023-06-14T01:04:30;4.50;;;1.88;;
47669;SDS011;33408;52.062;11.722;2023-06-14T01:06:57;5.68;;;2.28;;
47669;SDS011;33408;52.062;11.722;2023-06-14T01:09:37;6.50;;;1.92;;
47669;SDS011;33408;52.062;11.722;2023-06-14T01:12:11;5.25;;;1.98;;
47669;SDS011;33408;52.062;11.722;2023-06-14T01:14:42;5.85;;;2.22;;
47669;SDS011;33408;52.062;11.722;2023-06-14T01:17:10;7.22;;;2.30;;
47669;SDS011;33408;52.062;11.722;2023-06-14T01:19:43;3.42;;;1.90;;
47669;SDS011;33408;52.062;11.722;2023-06-14T01:22:09;5.70;;;2.33;;
47669;SDS011;33408;52.062;11.722;2023-06-14T01:24:38;5.25;;;2.30;;
47669;SDS011;33408;52.062;11.722;2023-06-14T01:27:10;4.60;;;1.92;;
47669;SDS011;33408;52.062;11.722;2023-06-14T01:29:38;7.30;;;2.50;;
47669;SDS011;33408;52.062;11.722;2023-06-14T01:34:37;4.25;;;2.13;;
47669;SDS011;33408;52.062;11.722;2023-06-14T01:37:04;4.22;;;2.33;;
47669;SDS011;33408;52.062;11.722;2023-06-14T01:39:31;4.85;;;2.20;;
47669;SDS011;33408;52.062;11.722;2023-06-14T01:42:00;6.93;;;2.67;;
47669;SDS011;33408;52.062;11.722;2023-06-14T01:44:26;7.72;;;2.58;;
47669;SDS011;33408;52.062;11.722;2023-06-14T01:46:55;6.50;;;2.42;;
47669;SDS011;33408;52.062;11.722;2023-06-14T01:49:22;4.57;;;2.08;;
47669;SDS011;33408;52.062;11.722;2023-06-14T01:51:49;5.75;;;2.35;;
47669;SDS011;33408;52.062;11.722;2023-06-14T01:54:15;4.50;;;2.13;;
47669;SDS011;33408;52.062;11.722;2023-06-14T01:56:42;4.55;;;2.22;;
47669;SDS011;33408;52.062;11.722;2023-06-14T01:59:10;5.90;;;2.40;;
47669;SDS011;33408;52.062;11.722;2023-06-14T02:01:36;5.07;;;2.38;;
47669;SDS011;33408;52.062;11.722;2023-06-14T02:04:03;5.90;;;2.50;;
47669;SDS011;33408;52.062;11.722;2023-06-14T02:06:30;7.55;;;2.45;;
47669;SDS011;33408;52.062;11.722;2023-06-14T02:08:56;8.68;;;2.53;;
47669;SDS011;33408;52.062;11.722;2023-06-14T02:11:23;5.65;;;2.55;;
47669;SDS011;33408;52.062;11.722;2023-06-14T02:13:50;7.03;;;2.35;;
47669;SDS011;33408;52.062;11.722;2023-06-14T02:16:18;5.15;;;2.00;;
47669;SDS011;33408;52.062;11.722;2023-06-14T02:18:44;5.22;;;2.78;;
47669;SDS011;33408;52.062;11.722;2023-06-14T02:21:11;6.35;;;2.38;;
47669;SDS011;33408;52.062;11.722;2023-06-14T02:23:38;5.72;;;2.72;;
47669;SDS011;33408;52.062;11.722;2023-06-14T02:26:05;5.07;;;2.47;;
47669;SDS011;33408;52.062;11.722;2023-06-14T02:28:31;8.20;;;2.70;;
47669;SDS011;33408;52.062;11.722;2023-06-14T02:30:58;6.63;;;2.65;;
47669;SDS011;33408;52.062;11.722;2023-06-14T02:33:27;6.07;;;2.72;;
47669;SDS011;33408;52.062;11.722;2023-06-14T02:35:56;8.52;;;2.63;;
47669;SDS011;33408;52.062;11.722;2023-06-14T02:38:23;5.47;;;2.45;;
47669;SDS011;33408;52.062;11.722;2023-06-14T02:40:50;5.70;;;2.60;;
47669;SDS011;33408;52.062;11.722;2023-06-14T02:43:17;5.00;;;2.80;;
47669;SDS011;33408;52.062;11.722;2023-06-14T02:45:43;7.68;;;3.03;;
47669;SDS011;33408;52.062;11.722;2023-06-14T02:48:10;8.68;;;3.25;;
47669;SDS011;33408;52.062;11.722;2023-06-14T02:50:38;5.97;;;2.85;;
47669;SDS011;33408;52.062;11.722;2023-06-14T02:53:04;6.00;;;2.55;;
47669;SDS011;33408;52.062;11.722;2023-06-14T02:55:32;5.38;;;2.53;;
47669;SDS011;33408;52.062;11.722;2023-06-14T02:57:58;5.38;;;2.50;;
47669;SDS011;33408;52.062;11.722;2023-06-14T03:00:25;5.43;;;2.92;;
47669;SDS011;33408;52.062;11.722;2023-06-14T03:02:52;8.05;;;2.72;;
47669;SDS011;33408;52.062;11.722;2023-06-14T03:05:19;7.47;;;3.05;;
47669;SDS011;33408;52.062;11.722;2023-06-14T03:07:48;5.32;;;3.00;;
47669;SDS011;33408;52.062;11.722;2023-06-14T03:10:15;5.97;;;2.75;;
47669;SDS011;33408;52.062;11.722;2023-06-14T03:12:42;5.93;;;2.53;;
47669;SDS011;33408;52.062;11.722;2023-06-14T03:15:09;5.57;;;3.15;;
47669;SDS011;33408;52.062;11.722;2023-06-14T03:17:38;5.35;;;2.78;;
47669;SDS011;33408;52.062;11.722;2023-06-14T03:20:05;4.88;;;2.88;;
47669;SDS011;33408;52.062;11.722;2023-06-14T03:22:33;7.15;;;3.08;;
47669;SDS011;33408;52.062;11.722;2023-06-14T03:25:01;7.47;;;2.63;;
47669;SDS011;33408;52.062;11.722;2023-06-14T03:27:29;10.15;;;3.70;;
47669;SDS011;33408;52.062;11.722;2023-06-14T03:29:55;6.22;;;3.22;;
47669;SDS011;33408;52.062;11.722;2023-06-14T03:32:22;7.25;;;3.35;;
47669;SDS011;33408;52.062;11.722;2023-06-14T03:34:49;7.47;;;3.60;;
47669;SDS011;33408;52.062;11.722;2023-06-14T03:37:16;7.47;;;3.03;;
47669;SDS011;33408;52.062;11.722;2023-06-14T03:39:42;8.50;;;3.78;;
47669;SDS011;33408;52.062;11.722;2023-06-14T03:42:13;7.28;;;3.20;;
47669;SDS011;33408;52.062;11.722;2023-06-14T03:44:40;7.38;;;3.08;;
47669;SDS011;33408;52.062;11.722;2023-06-14T03:47:06;7.80;;;3.50;;
47669;SDS011;33408;52.062;11.722;2023-06-14T03:49:34;8.00;;;3.63;;
47669;SDS011;33408;52.062;11.722;2023-06-14T03:52:02;9.68;;;3.45;;
47669;SDS011;33408;52.062;11.722;2023-06-14T03:54:28;7.72;;;3.47;;
47669;SDS011;33408;52.062;11.722;2023-06-14T03:56:57;7.13;;;3.50;;
47669;SDS011;33408;52.062;11.722;2023-06-14T03:59:25;7.00;;;3.47;;
47669;SDS011;33408;52.062;11.722;2023-06-14T04:01:53;7.45;;;3.03;;
47669;SDS011;33408;52.062;11.722;2023-06-14T04:04:20;6.70;;;3.30;;
47669;SDS011;33408;52.062;11.722;2023-06-14T04:06:46;6.57;;;2.83;;
47669;SDS011;33408;52.062;11.722;2023-06-14T04:09:15;6.40;;;3.30;;
47669;SDS011;33408;52.062;11.722;2023-06-14T04:11:44;4.97;;;2.90;;
47669;SDS011;33408;52.062;11.722;2023-06-14T04:14:10;6.00;;;2.88;;
47669;SDS011;33408;52.062;11.722;2023-06-14T04:16:38;8.48;;;3.35;;
47669;SDS011;33408;52.062;11.722;2023-06-14T04:19:05;5.75;;;3.20;;
47669;SDS011;33408;52.062;11.722;2023-06-14T04:21:32;8.18;;;2.92;;
47669;SDS011;33408;52.062;11.722;2023-06-14T04:24:00;7.35;;;3.13;;
47669;SDS011;33408;52.062;11.722;2023-06-14T04:26:26;7.78;;;3.30;;
47669;SDS011;33408;52.062;11.722;2023-06-14T04:28:54;8.23;;;2.90;;
47669;SDS011;33408;52.062;11.722;2023-06-14T04:31:21;5.72;;;2.70;;
47669;SDS011;33408;52.062;11.722;2023-06-14T04:33:51;6.22;;;3.08;;
47669;SDS011;33408;52.062;11.722;2023-06-14T04:36:18;6.53;;;3.15;;
47669;SDS011;33408;52.062;11.722;2023-06-14T04:38:45;8.80;;;3.42;;
47669;SDS011;33408;52.062;11.722;2023-06-14T04:41:14;6.13;;;3.15;;
47669;SDS011;33408;52.062;11.722;2023-06-14T04:43:41;5.80;;;3.22;;
47669;SDS011;33408;52.062;11.722;2023-06-14T04:46:08;6.57;;;3.10;;
47669;SDS011;33408;52.062;11.722;2023-06-14T04:48:36;7.55;;;3.75;;
47669;SDS011;33408;52.062;11.722;2023-06-14T04:51:05;7.07;;;3.45;;
47669;SDS011;33408;52.062;11.722;2023-06-14T04:53:32;7.25;;;3.17;;
47669;SDS011;33408;52.062;11.722;2023-06-14T04:55:59;8.73;;;3.35;;
47669;SDS011;33408;52.062;11.722;2023-06-14T04:58:26;5.88;;;3.00;;
47669;SDS011;33408;52.062;11.722;2023-06-14T05:00:53;7.22;;;3.25;;
47669;SDS011;33408;52.062;11.722;2023-06-14T05:03:21;7.35;;;3.03;;
47669;SDS011;33408;52.062;11.722;2023-06-14T05:05:49;9.27;;;3.40;;
47669;SDS011;33408;52.062;11.722;2023-06-14T05:08:17;9.85;;;3.67;;
47669;SDS011;33408;52.062;11.722;2023-06-14T05:10:43;7.63;;;3.75;;
47669;SDS011;33408;52.062;11.722;2023-06-14T05:13:10;6.72;;;3.80;;
47669;SDS011;33408;52.062;11.722;2023-06-14T05:15:36;6.10;;;2.97;;
47669;SDS011;33408;52.062;11.722;2023-06-14T05:18:03;5.70;;;2.95;;
47669;SDS011;33408;52.062;11.722;2023-06-14T05:20:30;6.55;;;3.50;;
47669;SDS011;33408;52.062;11.722;2023-06-14T05:22:57;6.05;;;3.25;;
47669;SDS011;33408;52.062;11.722;2023-06-14T05:25:24;12.07;;;3.92;;
47669;SDS011;33408;52.062;11.722;2023-06-14T05:27:53;7.40;;;3.83;;
47669;SDS011;33408;52.062;11.722;2023-06-14T05:30:19;8.23;;;4.00;;
47669;SDS011;33408;52.062;11.722;2023-06-14T05:32:46;6.70;;;3.72;;
47669;SDS011;33408;52.062;11.722;2023-06-14T05:35:13;7.03;;;3.55;;
47669;SDS011;33408;52.062;11.722;2023-06-14T05:37:39;8.30;;;4.30;;
47669;SDS011;33408;52.062;11.722;2023-06-14T05:40:06;8.60;;;4.13;;
47669;SDS011;33408;52.062;11.722;2023-06-14T05:42:35;5.55;;;3.50;;
47669;SDS011;33408;52.062;11.722;2023-06-14T05:45:02;8.98;;;4.07;;
47669;SDS011;33408;52.062;11.722;2023-06-14T05:47:29;9.30;;;4.28;;
47669;SDS011;33408;52.062;11.722;2023-06-14T05:49:56;7.72;;;3.92;;
47669;SDS011;33408;52.062;11.722;2023-06-14T05:52:22;7.18;;;4.13;;
47669;SDS011;33408;52.062;11.722;2023-06-14T05:54:50;5.90;;;3.35;;
47669;SDS011;33408;52.062;11.722;2023-06-14T05:57:16;6.90;;;4.03;;
47669;SDS011;33408;52.062;11.722;2023-06-14T05:59:44;7.20;;;4.00;;
47669;SDS011;33408;52.062;11.722;2023-06-14T06:02:11;6.82;;;3.72;;
47669;SDS011;33408;52.062;11.722;2023-06-14T06:04:37;6.35;;;3.55;;
47669;SDS011;33408;52.062;11.722;2023-06-14T06:07:04;6.25;;;3.83;;
47669;SDS011;33408;52.062;11.722;2023-06-14T06:09:31;5.88;;;3.60;;
47669;SDS011;33408;52.062;11.722;2023-06-14T06:11:58;8.13;;;4.03;;
47669;SDS011;33408;52.062;11.722;2023-06-14T06:14:25;7.60;;;3.95;;
47669;SDS011;33408;52.062;11.722;2023-06-14T06:16:53;8.90;;;3.65;;
47669;SDS011;33408;52.062;11.722;2023-06-14T06:19:20;5.85;;;3.67;;
47669;SDS011;33408;52.062;11.722;2023-06-14T06:21:47;7.53;;;4.22;;
47669;SDS011;33408;52.062;11.722;2023-06-14T06:24:13;6.72;;;3.42;;
47669;SDS011;33408;52.062;11.722;2023-06-14T06:26:40;7.20;;;3.60;;
47669;SDS011;33408;52.062;11.722;2023-06-14T06:29:06;6.95;;;3.90;;
47669;SDS011;33408;52.062;11.722;2023-06-14T06:31:33;6.82;;;3.83;;
47669;SDS011;33408;52.062;11.722;2023-06-14T06:34:01;6.13;;;3.75;;
47669;SDS011;33408;52.062;11.722;2023-06-14T06:36:28;6.30;;;3.38;;
47669;SDS011;33408;52.062;11.722;2023-06-14T06:38:55;6.50;;;3.20;;
47669;SDS011;33408;52.062;11.722;2023-06-14T06:41:21;6.55;;;3.92;;
47669;SDS011;33408;52.062;11.722;2023-06-14T06:43:48;6.10;;;3.38;;
47669;SDS011;33408;52.062;11.722;2023-06-14T06:46:15;6.47;;;3.55;;
47669;SDS011;33408;52.062;11.722;2023-06-14T06:48:43;5.72;;;3.25;;
47669;SDS011;33408;52.062;11.722;2023-06-14T06:51:11;6.90;;;3.42;;
47669;SDS011;33408;52.062;11.722;2023-06-14T06:53:38;6.43;;;3.13;;
47669;SDS011;33408;52.062;11.722;2023-06-14T06:56:04;6.68;;;3.33;;
47669;SDS011;33408;52.062;11.722;2023-06-14T06:58:31;5.65;;;2.80;;
47669;SDS011;33408;52.062;11.722;2023-06-14T07:00:58;7.07;;;3.15;;
47669;SDS011;33408;52.062;11.722;2023-06-14T07:03:25;6.53;;;3.08;;
47669;SDS011;33408;52.062;11.722;2023-06-14T07:05:51;5.72;;;2.63;;
47669;SDS011;33408;52.062;11.722;2023-06-14T07:08:19;5.03;;;2.63;;
47669;SDS011;33408;52.062;11.722;2023-06-14T07:10:46;5.97;;;2.60;;
47669;SDS011;33408;52.062;11.722;2023-06-14T07:13:12;4.50;;;2.40;;
47669;SDS011;33408;52.062;11.722;2023-06-14T07:15:39;5.82;;;2.85;;
47669;SDS011;33408;52.062;11.722;2023-06-14T07:18:05;4.43;;;2.17;;
47669;SDS011;33408;52.062;11.722;2023-06-14T07:20:33;5.30;;;2.30;;
47669;SDS011;33408;52.062;11.722;2023-06-14T07:22:59;5.00;;;2.47;;
47669;SDS011;33408;52.062;11.722;2023-06-14T07:25:27;6.47;;;2.13;;
47669;SDS011;33408;52.062;11.722;2023-06-14T07:27:54;4.68;;;2.28;;
47669;SDS011;33408;52.062;11.722;2023-06-14T07:30:20;4.25;;;2.30;;
47669;SDS011;33408;52.062;11.722;2023-06-14T07:32:50;5.03;;;2.45;;
47669;SDS011;33408;52.062;11.722;2023-06-14T07:35:17;6.40;;;2.38;;
47669;SDS011;33408;52.062;11.722;2023-06-14T07:37:44;3.95;;;1.90;;
47669;SDS011;33408;52.062;11.722;2023-06-14T07:40:12;5.47;;;2.60;;
47669;SDS011;33408;52.062;11.722;2023-06-14T07:42:41;5.88;;;2.72;;
47669;SDS011;33408;52.062;11.722;2023-06-14T07:45:08;4.07;;;2.15;;
47669;SDS011;33408;52.062;11.722;2023-06-14T07:47:35;4.78;;;2.20;;
47669;SDS011;33408;52.062;11.722;2023-06-14T07:50:02;6.45;;;2.90;;
47669;SDS011;33408;52.062;11.722;2023-06-14T07:52:28;6.60;;;2.92;;
47669;SDS011;33408;52.062;11.722;2023-06-14T07:54:55;5.82;;;2.90;;
47669;SDS011;33408;52.062;11.722;2023-06-14T07:57:23;4.28;;;2.30;;
47669;SDS011;33408;52.062;11.722;2023-06-14T07:59:51;4.90;;;2.50;;
47669;SDS011;33408;52.062;11.722;2023-06-14T08:02:17;4.30;;;2.20;;
47669;SDS011;33408;52.062;11.722;2023-06-14T08:04:44;3.97;;;1.83;;
47669;SDS011;33408;52.062;11.722;2023-06-14T08:07:11;5.72;;;1.90;;
47669;SDS011;33408;52.062;11.722;2023-06-14T08:09:38;3.25;;;1.80;;
47669;SDS011;33408;52.062;11.722;2023-06-14T08:12:05;3.63;;;1.95;;
47669;SDS011;33408;52.062;11.722;2023-06-14T08:14:35;5.32;;;2.15;;
47669;SDS011;33408;52.062;11.722;2023-06-14T08:17:03;4.18;;;2.05;;
47669;SDS011;33408;52.062;11.722;2023-06-14T08:19:30;5.78;;;1.80;;
47669;SDS011;33408;52.062;11.722;2023-06-14T08:21:57;5.18;;;2.05;;
47669;SDS011;33408;52.062;11.722;2023-06-14T08:24:23;14.48;;;2.65;;
47669;SDS011;33408;52.062;11.722;2023-06-14T08:26:51;5.57;;;2.45;;
47669;SDS011;33408;52.062;11.722;2023-06-14T08:29:18;4.13;;;2.30;;
47669;SDS011;33408;52.062;11.722;2023-06-14T08:31:45;4.72;;;2.38;;
47669;SDS011;33408;52.062;11.722;2023-06-14T08:34:13;5.40;;;2.40;;
47669;SDS011;33408;52.062;11.722;2023-06-14T08:36:39;9.30;;;2.67;;
47669;SDS011;33408;52.062;11.722;2023-06-14T08:39:06;5.82;;;2.35;;
47669;SDS011;33408;52.062;11.722;2023-06-14T08:41:34;5.15;;;1.98;;
47669;SDS011;33408;52.062;11.722;2023-06-14T08:44:01;4.97;;;2.05;;
47669;SDS011;33408;52.062;11.722;2023-06-14T08:46:29;4.63;;;2.30;;
47669;SDS011;33408;52.062;11.722;2023-06-14T08:48:59;4.63;;;2.00;;
47669;SDS011;33408;52.062;11.722;2023-06-14T08:51:28;6.45;;;2.58;;
47669;SDS011;33408;52.062;11.722;2023-06-14T08:53:59;3.85;;;2.10;;
47669;SDS011;33408;52.062;11.722;2023-06-14T08:56:28;4.25;;;1.98;;
47669;SDS011;33408;52.062;11.722;2023-06-14T08:58:56;3.72;;;1.85;;
47669;SDS011;33408;52.062;11.722;2023-06-14T09:01:26;4.28;;;2.15;;
47669;SDS011;33408;52.062;11.722;2023-06-14T09:03:53;4.10;;;2.00;;
47669;SDS011;33408;52.062;11.722;2023-06-14T09:06:22;5.30;;;2.70;;
47669;SDS011;33408;52.062;11.722;2023-06-14T09:08:51;7.38;;;2.70;;
47669;SDS011;33408;52.062;11.722;2023-06-14T09:11:18;5.13;;;2.05;;
47669;SDS011;33408;52.062;11.722;2023-06-14T09:13:45;4.85;;;2.33;;
47669;SDS011;33408;52.062;11.722;2023-06-14T09:16:12;4.50;;;2.50;;
47669;SDS011;33408;52.062;11.722;2023-06-14T09:18:40;5.45;;;2.40;;
47669;SDS011;33408;52.062;11.722;2023-06-14T09:21:10;4.78;;;2.65;;
47669;SDS011;33408;52.062;11.722;2023-06-14T09:23:37;5.50;;;2.30;;
47669;SDS011;33408;52.062;11.722;2023-06-14T09:26:07;7.80;;;2.50;;
47669;SDS011;33408;52.062;11.722;2023-06-14T09:28:35;9.68;;;3.28;;
47669;SDS011;33408;52.062;11.722;2023-06-14T09:31:02;6.97;;;2.50;;
47669;SDS011;33408;52.062;11.722;2023-06-14T09:33:28;4.25;;;2.10;;
47669;SDS011;33408;52.062;11.722;2023-06-14T09:35:57;5.45;;;2.58;;
47669;SDS011;33408;52.062;11.722;2023-06-14T09:38:24;7.20;;;2.80;;
47669;SDS011;33408;52.062;11.722;2023-06-14T09:40:51;7.30;;;3.05;;
47669;SDS011;33408;52.062;11.722;2023-06-14T09:43:19;7.22;;;2.90;;
47669;SDS011;33408;52.062;11.722;2023-06-14T09:45:47;4.82;;;2.40;;
47669;SDS011;33408;52.062;11.722;2023-06-14T09:48:14;6.78;;;3.13;;
47669;SDS011;33408;52.062;11.722;2023-06-14T09:50:42;5.80;;;2.92;;
47669;SDS011;33408;52.062;11.722;2023-06-14T09:53:11;5.70;;;2.50;;
47669;SDS011;33408;52.062;11.722;2023-06-14T09:55:40;7.53;;;3.35;;
47669;SDS011;33408;52.062;11.722;2023-06-14T09:58:08;6.00;;;2.88;;
47669;SDS011;33408;52.062;11.722;2023-06-14T10:00:38;6.75;;;2.90;;
47669;SDS011;33408;52.062;11.722;2023-06-14T10:03:12;6.78;;;3.03;;
47669;SDS011;33408;52.062;11.722;2023-06-14T10:05:39;5.15;;;2.55;;
47669;SDS011;33408;52.062;11.722;2023-06-14T10:08:10;5.70;;;2.85;;
47669;SDS011;33408;52.062;11.722;2023-06-14T10:10:40;6.28;;;2.75;;
47669;SDS011;33408;52.062;11.722;2023-06-14T10:13:09;10.20;;;2.58;;
47669;SDS011;33408;52.062;11.722;2023-06-14T10:15:41;7.35;;;3.00;;
47669;SDS011;33408;52.062;11.722;2023-06-14T10:18:16;8.95;;;3.40;;
47669;SDS011;33408;52.062;11.722;2023-06-14T10:20:51;8.23;;;3.10;;
47669;SDS011;33408;52.062;11.722;2023-06-14T10:23:26;8.25;;;3.33;;
47669;SDS011;33408;52.062;11.722;2023-06-14T10:25:55;7.13;;;2.95;;
47669;SDS011;33408;52.062;11.722;2023-06-14T10:28:25;7.97;;;3.08;;
47669;SDS011;33408;52.062;11.722;2023-06-14T10:31:06;6.25;;;2.90;;
47669;SDS011;33408;52.062;11.722;2023-06-14T10:33:34;6.63;;;2.70;;
47669;SDS011;33408;52.062;11.722;2023-06-14T10:36:08;8.90;;;3.22;;
47669;SDS011;33408;52.062;11.722;2023-06-14T10:38:36;6.13;;;2.78;;
47669;SDS011;33408;52.062;11.722;2023-06-14T10:41:03;6.57;;;3.00;;
47669;SDS011;33408;52.062;11.722;2023-06-14T10:43:31;9.50;;;3.08;;
47669;SDS011;33408;52.062;11.722;2023-06-14T10:46:17;7.90;;;3.05;;
47669;SDS011;33408;52.062;11.722;2023-06-14T10:48:48;5.63;;;3.00;;
47669;SDS011;33408;52.062;11.722;2023-06-14T10:51:15;6.80;;;3.08;;
47669;SDS011;33408;52.062;11.722;2023-06-14T10:53:46;7.20;;;3.05;;
47669;SDS011;33408;52.062;11.722;2023-06-14T10:56:23;7.38;;;3.20;;
47669;SDS011;33408;52.062;11.722;2023-06-14T10:58:53;6.07;;;3.17;;
47669;SDS011;33408;52.062;11.722;2023-06-14T11:01:26;8.80;;;2.83;;
47669;SDS011;33408;52.062;11.722;2023-06-14T11:04:06;6.57;;;2.63;;
47669;SDS011;33408;52.062;11.722;2023-06-14T11:09:27;8.07;;;3.25;;
47669;SDS011;33408;52.062;11.722;2023-06-14T11:12:19;5.75;;;2.50;;
47669;SDS011;33408;52.062;11.722;2023-06-14T11:14:47;9.52;;;3.60;;
47669;SDS011;33408;52.062;11.722;2023-06-14T11:17:15;5.57;;;2.75;;
47669;SDS011;33408;52.062;11.722;2023-06-14T11:19:42;5.43;;;2.80;;
47669;SDS011;33408;52.062;11.722;2023-06-14T11:22:10;8.70;;;3.10;;
47669;SDS011;33408;52.062;11.722;2023-06-14T11:24:36;5.80;;;2.80;;
47669;SDS011;33408;52.062;11.722;2023-06-14T11:27:03;6.38;;;3.00;;
47669;SDS011;33408;52.062;11.722;2023-06-14T11:29:31;7.32;;;2.58;;
47669;SDS011;33408;52.062;11.722;2023-06-14T11:31:58;12.10;;;2.92;;
47669;SDS011;33408;52.062;11.722;2023-06-14T11:34:26;6.00;;;2.80;;
47669;SDS011;33408;52.062;11.722;2023-06-14T11:36:52;6.07;;;2.70;;
47669;SDS011;33408;52.062;11.722;2023-06-14T11:39:23;8.35;;;2.90;;
47669;SDS011;33408;52.062;11.722;2023-06-14T11:41:50;7.03;;;2.88;;
47669;SDS011;33408;52.062;11.722;2023-06-14T11:44:17;5.32;;;2.58;;
47669;SDS011;33408;52.062;11.722;2023-06-14T11:46:44;5.80;;;2.50;;
47669;SDS011;33408;52.062;11.722;2023-06-14T11:49:10;7.90;;;3.17;;
47669;SDS011;33408;52.062;11.722;2023-06-14T11:51:38;6.70;;;2.70;;
47669;SDS011;33408;52.062;11.722;2023-06-14T11:54:06;8.90;;;3.45;;
47669;SDS011;33408;52.062;11.722;2023-06-14T11:56:33;7.80;;;2.90;;
47669;SDS011;33408;52.062;11.722;2023-06-14T11:59:02;8.15;;;3.20;;
47669;SDS011;33408;52.062;11.722;2023-06-14T12:01:30;6.15;;;2.75;;
47669;SDS011;33408;52.062;11.722;2023-06-14T12:03:58;8.52;;;2.38;;
47669;SDS011;33408;52.062;11.722;2023-06-14T12:06:25;8.43;;;3.08;;
47669;SDS011;33408;52.062;11.722;2023-06-14T12:08:59;7.80;;;2.65;;
47669;SDS011;33408;52.062;11.722;2023-06-14T12:11:32;7.80;;;2.67;;
47669;SDS011;33408;52.062;11.722;2023-06-14T12:16:29;5.82;;;2.70;;
47669;SDS011;33408;52.062;11.722;2023-06-14T12:18:59;6.65;;;2.70;;
47669;SDS011;33408;52.062;11.722;2023-06-14T12:21:26;9.18;;;3.35;;
47669;SDS011;33408;52.062;11.722;2023-06-14T12:23:54;7.03;;;2.83;;
47669;SDS011;33408;52.062;11.722;2023-06-14T12:26:22;7.63;;;2.75;;
47669;SDS011;33408;52.062;11.722;2023-06-14T12:28:51;9.13;;;3.22;;
47669;SDS011;33408;52.062;11.722;2023-06-14T12:31:17;7.85;;;2.88;;
47669;SDS011;33408;52.062;11.722;2023-06-14T12:33:44;7.85;;;2.83;;
47669;SDS011;33408;52.062;11.722;2023-06-14T12:36:13;10.27;;;3.60;;
47669;SDS011;33408;52.062;11.722;2023-06-14T12:38:40;12.63;;;3.47;;
47669;SDS011;33408;52.062;11.722;2023-06-14T12:41:07;6.68;;;2.63;;
47669;SDS011;33408;52.062;11.722;2023-06-14T12:43:35;8.80;;;2.78;;
47669;SDS011;33408;52.062;11.722;2023-06-14T12:46:02;11.93;;;3.83;;
47669;SDS011;33408;52.062;11.722;2023-06-14T12:48:29;9.77;;;3.17;;
47669;SDS011;33408;52.062;11.722;2023-06-14T12:50:56;10.30;;;3.22;;
47669;SDS011;33408;52.062;11.722;2023-06-14T12:53:23;6.88;;;3.00;;
47669;SDS011;33408;52.062;11.722;2023-06-14T12:55:50;10.05;;;3.13;;
47669;SDS011;33408;52.062;11.722;2023-06-14T12:58:16;7.80;;;2.58;;
47669;SDS011;33408;52.062;11.722;2023-06-14T13:00:46;10.35;;;2.80;;
47669;SDS011;33408;52.062;11.722;2023-06-14T13:03:12;5.65;;;2.75;;
47669;SDS011;33408;52.062;11.722;2023-06-14T13:05:39;7.25;;;2.85;;
47669;SDS011;33408;52.062;11.722;2023-06-14T13:08:06;7.05;;;2.78;;
47669;SDS011;33408;52.062;11.722;2023-06-14T13:10:34;11.52;;;3.35;;
47669;SDS011;33408;52.062;11.722;2023-06-14T13:13:01;6.50;;;3.05;;
47669;SDS011;33408;52.062;11.722;2023-06-14T13:15:27;4.25;;;2.33;;
47669;SDS011;33408;52.062;11.722;2023-06-14T13:17:56;7.72;;;2.70;;
47669;SDS011;33408;52.062;11.722;2023-06-14T13:20:22;7.88;;;2.80;;
47669;SDS011;33408;52.062;11.722;2023-06-14T13:22:49;6.25;;;2.72;;
47669;SDS011;33408;52.062;11.722;2023-06-14T13:25:16;8.38;;;2.80;;
47669;SDS011;33408;52.062;11.722;2023-06-14T13:27:42;6.40;;;2.63;;
47669;SDS011;33408;52.062;11.722;2023-06-14T13:30:09;6.68;;;3.10;;
47669;SDS011;33408;52.062;11.722;2023-06-14T13:32:36;7.57;;;3.03;;
47669;SDS011;33408;52.062;11.722;2023-06-14T13:35:05;5.65;;;2.67;;
47669;SDS011;33408;52.062;11.722;2023-06-14T13:37:32;7.18;;;3.25;;
47669;SDS011;33408;52.062;11.722;2023-06-14T13:39:58;10.77;;;3.50;;
47669;SDS011;33408;52.062;11.722;2023-06-14T13:42:25;7.57;;;2.75;;
47669;SDS011;33408;52.062;11.722;2023-06-14T13:44:51;7.18;;;2.80;;
47669;SDS011;33408;52.062;11.722;2023-06-14T13:47:18;9.05;;;3.05;;
47669;SDS011;33408;52.062;11.722;2023-06-14T13:49:44;6.25;;;2.80;;
47669;SDS011;33408;52.062;11.722;2023-06-14T13:52:13;9.38;;;3.17;;
47669;SDS011;33408;52.062;11.722;2023-06-14T13:54:39;8.13;;;3.03;;
47669;SDS011;33408;52.062;11.722;2023-06-14T13:57:07;7.63;;;2.72;;
47669;SDS011;33408;52.062;11.722;2023-06-14T13:59:34;6.18;;;2.92;;
47669;SDS011;33408;52.062;11.722;2023-06-14T14:02:00;7.78;;;3.17;;
47669;SDS011;33408;52.062;11.722;2023-06-14T14:04:27;10.63;;;2.95;;
47669;SDS011;33408;52.062;11.722;2023-06-14T14:06:53;5.22;;;2.67;;
47669;SDS011;33408;52.062;11.722;2023-06-14T14:09:21;9.10;;;2.53;;
47669;SDS011;33408;52.062;11.722;2023-06-14T14:11:48;8.98;;;2.90;;
47669;SDS011;33408;52.062;11.722;2023-06-14T14:14:15;5.63;;;2.80;;
47669;SDS011;33408;52.062;11.722;2023-06-14T14:16:41;6.18;;;2.78;;
47669;SDS011;33408;52.062;11.722;2023-06-14T14:19:08;6.25;;;2.40;;
47669;SDS011;33408;52.062;11.722;2023-06-14T14:21:35;10.05;;;2.95;;
47669;SDS011;33408;52.062;11.722;2023-06-14T14:24:01;8.82;;;2.67;;
47669;SDS011;33408;52.062;11.722;2023-06-14T14:26:29;8.40;;;2.65;;
47669;SDS011;33408;52.062;11.722;2023-06-14T14:28:56;7.65;;;3.20;;
47669;SDS011;33408;52.062;11.722;2023-06-14T14:31:22;10.00;;;3.05;;
47669;SDS011;33408;52.062;11.722;2023-06-14T14:33:49;5.68;;;2.55;;
47669;SDS011;33408;52.062;11.722;2023-06-14T14:36:15;12.85;;;3.45;;
47669;SDS011;33408;52.062;11.722;2023-06-14T14:38:42;8.32;;;2.78;;
47669;SDS011;33408;52.062;11.722;2023-06-14T14:41:09;6.38;;;2.67;;
47669;SDS011;33408;52.062;11.722;2023-06-14T14:43:37;8.88;;;2.83;;